createdAt,value
2023-02-06T00:01:24.752Z,68.80
2023-02-06T00:04:41.453Z,68.91
2023-02-06T00:07:55.735Z,68.93
2023-02-06T00:11:15.021Z,68.94
2023-02-06T00:14:14.174Z,69.23
2023-02-06T00:17:09.619Z,69.34
2023-02-06T00:20:08.838Z,69.37
2023-02-06T00:23:37.628Z,69.41
2023-02-06T00:26:30.281Z,69.30
2023-02-06T00:29:33.627Z,69.19
2023-02-06T00:32:57.280Z,68.99
2023-02-06T00:35:46.761Z,68.86
2023-02-06T00:39:13.713Z,68.95
2023-02-06T00:42:02.137Z,68.76
2023-02-06T00:45:01.564Z,68.74
2023-02-06T00:52:12.662Z,68.76
2023-02-06T00:55:16.420Z,68.81
2023-02-06T00:58:22.645Z,68.76
2023-02-06T01:04:37.035Z,68.29
2023-02-06T01:08:29.534Z,68.03
2023-02-06T01:11:54.222Z,68.04
2023-02-06T01:14:59.349Z,68.37
2023-02-06T01:18:38.382Z,68.22
2023-02-06T01:21:28.080Z,68.18
2023-02-06T01:27:12.464Z,68.43
2023-02-06T01:30:19.164Z,68.48
2023-02-06T01:33:14.169Z,68.71
2023-02-06T01:36:10.941Z,68.74
2023-02-06T01:38:57.326Z,68.51
2023-02-06T01:41:45.533Z,68.24
2023-02-06T01:44:46.652Z,68.33
2023-02-06T01:47:57.111Z,68.40
2023-02-06T01:51:01.312Z,68.48
2023-02-06T01:54:04.346Z,68.69
2023-02-06T01:57:18.406Z,68.57
2023-02-06T02:00:32.294Z,68.60
2023-02-06T02:03:18.381Z,68.70
2023-02-06T02:06:39.176Z,68.41
2023-02-06T02:09:42.092Z,68.37
2023-02-06T02:12:46.442Z,68.37
2023-02-06T02:15:55.473Z,68.44
2023-02-06T02:19:38.131Z,68.28
2023-02-06T02:23:37.268Z,68.42
2023-02-06T02:26:48.059Z,68.38
2023-02-06T02:30:19.185Z,68.40
2023-02-06T02:33:25.513Z,68.34
2023-02-06T02:37:03.062Z,68.03
2023-02-06T02:40:43.467Z,67.60
2023-02-06T02:43:57.928Z,67.72
2023-02-06T02:46:58.033Z,67.73
2023-02-06T02:50:11.164Z,67.72
2023-02-06T02:53:28.083Z,67.69
2023-02-06T02:56:45.342Z,67.51
2023-02-06T03:03:20.854Z,67.36
2023-02-06T03:07:21.784Z,67.35
2023-02-06T03:11:01.016Z,67.20
2023-02-06T03:14:42.972Z,67.30
2023-02-06T03:18:10.169Z,67.51
2023-02-06T03:21:26.802Z,67.25
2023-02-06T03:28:38.408Z,67.10
2023-02-06T03:32:02.488Z,66.92
2023-02-06T03:35:18.274Z,67.03
2023-02-06T03:38:43.234Z,67.22
2023-02-06T03:42:26.714Z,67.17
2023-02-06T03:45:55.704Z,67.09
2023-02-06T03:52:43.252Z,66.76
2023-02-06T03:55:46.768Z,66.81
2023-02-06T03:58:49.890Z,66.79
2023-02-06T04:02:03.875Z,66.84
2023-02-06T04:05:29.232Z,66.85
2023-02-06T04:09:10.558Z,66.83
2023-02-06T04:12:17.020Z,66.75
2023-02-06T04:15:16.594Z,66.48
2023-02-06T04:18:20.512Z,66.34
2023-02-06T04:21:26.863Z,66.40
2023-02-06T04:24:59.672Z,66.37
2023-02-06T04:28:34.652Z,66.41
2023-02-06T04:38:11.724Z,66.03
2023-02-06T04:41:14.330Z,65.90
2023-02-06T04:44:12.287Z,66.22
2023-02-06T04:47:01.097Z,66.42
2023-02-06T04:51:26.310Z,66.32
2023-02-06T04:53:26.716Z,66.29
2023-02-06T04:56:33.131Z,66.40
2023-02-06T04:59:22.645Z,66.41
2023-02-06T05:02:26.867Z,66.35
2023-02-06T05:05:06.247Z,66.36
2023-02-06T05:07:47.808Z,66.37
2023-02-06T05:10:57.023Z,66.14
2023-02-06T05:14:15.300Z,65.88
2023-02-06T05:17:11.924Z,66.09
2023-02-06T05:20:16.350Z,65.98
2023-02-06T05:27:34.625Z,66.21
2023-02-06T05:30:36.783Z,66.10
2023-02-06T05:33:35.353Z,66.15
2023-02-06T05:37:05.936Z,66.24
2023-02-06T05:39:54.046Z,66.15
2023-02-06T05:42:52.295Z,66.20
2023-02-06T05:45:57.532Z,66.25
2023-02-06T05:48:52.449Z,66.31
2023-02-06T05:52:18.968Z,66.24
2023-02-06T05:55:34.908Z,66.24
2023-02-06T05:58:33.225Z,66.17
2023-02-06T06:01:54.884Z,66.29
2023-02-06T06:05:52.604Z,66.28
2023-02-06T06:08:49.043Z,66.26
2023-02-06T06:15:22.014Z,66.37
2023-02-06T06:18:06.600Z,66.44
2023-02-06T06:21:26.642Z,66.42
2023-02-06T06:24:44.805Z,66.49
2023-02-06T06:28:01.768Z,66.48
2023-02-06T06:31:03.412Z,66.45
2023-02-06T06:33:57.894Z,66.40
2023-02-06T06:37:21.767Z,66.35
2023-02-06T06:40:51.265Z,66.41
2023-02-06T06:44:27.253Z,66.67
2023-02-06T06:48:24.774Z,66.88
2023-02-06T06:52:37.544Z,66.78
2023-02-06T07:06:34.439Z,66.96
2023-02-06T07:09:36.697Z,66.87
2023-02-06T07:12:16.897Z,66.87
2023-02-06T07:14:55.214Z,67.09
2023-02-06T07:17:40.586Z,66.90
2023-02-06T07:20:51.776Z,67.06
2023-02-06T07:23:36.298Z,67.17
2023-02-06T07:26:46.850Z,67.22
2023-02-06T07:29:44.524Z,67.31
2023-02-06T07:32:42.367Z,67.35
2023-02-06T07:36:22.581Z,67.42
2023-02-06T07:39:15.450Z,67.39
2023-02-06T07:42:12.680Z,67.24
2023-02-06T07:45:51.345Z,67.31
2023-02-06T08:04:36.147Z,66.67
2023-02-06T08:10:54.111Z,66.43
2023-02-06T08:13:57.009Z,66.16
2023-02-06T08:16:54.244Z,66.34
2023-02-06T08:19:58.761Z,66.00
2023-02-06T08:23:20.836Z,65.77
2023-02-06T08:26:27.490Z,65.65
2023-02-06T08:29:25.787Z,65.48
2023-02-06T08:32:30.034Z,65.15
2023-02-06T08:35:59.827Z,64.94
2023-02-06T08:39:28.720Z,64.70
2023-02-06T08:42:55.114Z,64.73
2023-02-06T08:46:19.366Z,64.65
2023-02-06T08:53:58.062Z,64.55
2023-02-06T09:03:36.777Z,63.97
2023-02-06T09:24:04.210Z,63.06
2023-02-06T09:28:21.118Z,63.16
2023-02-06T09:33:07.245Z,63.01
2023-02-06T09:34:49.318Z,63.02
2023-02-06T09:37:38.210Z,62.80
2023-02-06T09:40:41.942Z,62.85
2023-02-06T09:43:41.593Z,62.80
2023-02-06T09:46:55.061Z,62.27
2023-02-06T09:50:12.678Z,62.12
2023-02-06T09:53:24.298Z,62.43
2023-02-06T09:56:52.751Z,62.13
2023-02-06T10:03:03.582Z,61.49
2023-02-06T10:06:38.016Z,61.44
2023-02-06T10:10:00.012Z,60.88
2023-02-06T10:17:11.127Z,60.26
2023-02-06T10:25:01.184Z,59.00
2023-02-06T10:27:48.651Z,58.52
2023-02-06T10:30:50.134Z,57.80
2023-02-06T10:34:39.336Z,57.70
2023-02-06T10:39:42.956Z,56.62
2023-02-06T10:47:16.200Z,56.43
2023-02-06T10:50:57.291Z,55.10
2023-02-06T11:37:17.541Z,48.17
2023-02-06T11:40:40.014Z,48.49
2023-02-06T11:43:48.605Z,48.58
2023-02-06T11:47:04.663Z,49.04
2023-02-06T11:50:02.635Z,48.83
2023-02-06T11:52:45.748Z,48.94
2023-02-06T11:55:34.983Z,48.99
2023-02-06T11:58:39.831Z,49.21
2023-02-06T12:01:33.325Z,49.58
2023-02-06T12:04:41.435Z,49.83
2023-02-06T12:07:49.877Z,50.32
2023-02-06T12:11:06.346Z,50.68
2023-02-06T12:14:21.684Z,51.33
2023-02-06T12:17:45.199Z,51.68
2023-02-06T12:31:20.966Z,52.65
2023-02-06T12:53:26.694Z,54.09
2023-02-06T13:03:54.713Z,54.36
2023-02-06T13:07:32.251Z,54.31
2023-02-06T13:10:31.030Z,54.49
2023-02-06T13:13:30.168Z,54.52
2023-02-06T13:16:20.038Z,54.77
2023-02-06T16:14:59.360Z,54.59
2023-02-06T16:17:40.900Z,54.71
2023-02-06T16:20:38.914Z,54.77
2023-02-06T16:23:27.842Z,54.88
2023-02-06T16:26:12.663Z,54.95
2023-02-06T16:29:03.712Z,55.02
2023-02-06T16:31:37.749Z,55.04
2023-02-06T16:34:30.808Z,55.16
2023-02-06T16:36:59.110Z,55.16
2023-02-06T16:39:27.507Z,55.28
2023-02-06T16:41:55.202Z,55.30
2023-02-06T16:44:33.055Z,55.38
2023-02-06T16:47:12.509Z,55.49
2023-02-06T16:49:40.804Z,55.61
2023-02-06T16:52:18.077Z,55.68
2023-02-06T16:54:46.757Z,55.67
2023-02-06T16:57:32.761Z,55.69
2023-02-06T17:00:03.363Z,55.74
2023-02-06T17:02:31.128Z,55.80
2023-02-06T17:04:59.008Z,55.91
2023-02-06T17:07:31.426Z,56.00
2023-02-06T17:09:59.423Z,56.10
2023-02-06T17:12:28.134Z,56.18
2023-02-06T17:14:56.052Z,56.24
2023-02-06T17:17:27.306Z,56.28
2023-02-06T17:19:55.894Z,56.31
2023-02-06T17:22:23.760Z,56.48
2023-02-06T17:24:51.934Z,56.58
2023-02-06T17:30:31.879Z,56.87
2023-02-06T17:33:00.191Z,57.10
2023-02-06T17:35:29.030Z,57.22
2023-02-06T17:38:00.166Z,57.36
2023-02-06T17:40:44.064Z,57.62
2023-02-06T17:44:05.814Z,57.84
2023-02-06T17:47:00.743Z,58.11
2023-02-06T17:49:34.666Z,58.30
2023-02-06T17:52:02.972Z,58.49
2023-02-06T17:54:35.585Z,58.60
2023-02-06T17:57:11.800Z,58.76
2023-02-06T18:00:25.031Z,58.91
2023-02-06T18:03:15.153Z,59.00
2023-02-06T18:06:00.778Z,59.10
2023-02-06T18:08:33.539Z,59.33
2023-02-06T18:11:21.227Z,59.51
2023-02-06T18:13:50.905Z,59.74
2023-02-06T18:16:23.247Z,59.79
2023-02-06T18:18:51.382Z,59.91
2023-02-06T18:21:21.045Z,60.16
2023-02-06T18:23:52.705Z,60.22
2023-02-06T18:26:22.217Z,60.41
2023-02-06T18:28:51.535Z,60.61
2023-02-06T18:31:27.650Z,60.79
2023-02-06T18:34:08.461Z,60.85
2023-02-06T18:36:37.673Z,61.03
2023-02-06T18:39:06.341Z,61.10
2023-02-06T18:41:52.587Z,61.17
2023-02-06T18:44:20.514Z,61.33
2023-02-06T18:46:48.210Z,61.53
2023-02-06T18:49:17.222Z,61.71
2023-02-06T18:51:46.042Z,61.89
2023-02-06T18:54:14.103Z,62.06
2023-02-06T18:56:41.952Z,62.16
2023-02-06T18:59:09.807Z,62.20
2023-02-06T19:01:38.399Z,62.26
2023-02-06T19:04:07.194Z,62.25
2023-02-06T19:06:36.096Z,62.18
2023-02-06T19:09:06.508Z,62.23
2023-02-06T19:11:36.565Z,62.38
2023-02-06T19:14:11.206Z,62.37
2023-02-06T19:16:40.264Z,62.39
2023-02-06T19:19:08.132Z,62.37
2023-02-06T19:21:36.400Z,62.40
2023-02-06T19:24:05.322Z,62.42
2023-02-06T19:26:33.536Z,62.48
2023-02-06T19:29:01.637Z,62.54
2023-02-06T19:31:31.453Z,62.67
2023-02-06T19:34:01.732Z,62.68
2023-02-06T19:36:31.778Z,62.78
2023-02-06T19:39:04.795Z,62.94
2023-02-06T19:41:35.144Z,63.15
2023-02-06T19:44:08.373Z,63.24
2023-02-06T19:46:37.868Z,63.42
2023-02-06T19:49:08.285Z,63.60
2023-02-06T19:51:41.339Z,63.73
2023-02-06T19:54:09.280Z,63.96
2023-02-06T19:56:42.115Z,64.07
2023-02-06T19:59:19.747Z,64.16
2023-02-06T20:01:54.282Z,64.31
2023-02-06T20:04:28.436Z,64.51
2023-02-06T20:06:56.932Z,64.47
2023-02-06T20:09:28.079Z,64.46
2023-02-06T20:11:56.329Z,64.40
2023-02-06T20:14:25.694Z,64.49
2023-02-06T20:16:53.419Z,64.58
2023-02-06T20:19:25.758Z,64.63
2023-02-06T20:21:58.065Z,64.68
2023-02-06T20:24:32.073Z,64.77
2023-02-06T20:27:07.293Z,64.83
2023-02-06T20:29:38.893Z,64.90
2023-02-06T20:32:06.868Z,64.98
2023-02-06T20:34:35.479Z,65.12
2023-02-06T20:37:04.247Z,65.28
2023-02-06T20:39:34.074Z,65.42
2023-02-06T20:42:01.686Z,65.50
2023-02-06T20:44:30.049Z,65.68
2023-02-06T20:47:00.623Z,65.64
2023-02-06T20:49:30.960Z,65.75
2023-02-06T20:52:00.809Z,65.96
2023-02-06T20:54:30.024Z,65.88
2023-02-06T20:56:59.784Z,66.03
2023-02-06T20:59:28.100Z,66.12
2023-02-06T21:01:56.621Z,66.21
2023-02-06T21:04:24.569Z,66.22
2023-02-06T21:06:56.030Z,66.28
2023-02-06T21:09:23.765Z,66.41
2023-02-06T21:11:51.416Z,66.43
2023-02-06T21:14:19.708Z,66.45
2023-02-06T21:16:50.533Z,66.62
2023-02-06T21:19:20.269Z,66.53
2023-02-06T21:21:49.059Z,66.66
2023-02-06T21:24:20.990Z,66.80
2023-02-06T21:26:49.226Z,66.92
2023-02-06T21:29:17.088Z,67.14
2023-02-06T21:31:45.640Z,67.20
2023-02-06T21:34:24.252Z,67.15
2023-02-06T21:36:54.067Z,67.11
2023-02-06T21:39:26.459Z,67.19
2023-02-06T21:41:54.683Z,67.27
2023-02-06T21:44:44.404Z,67.36
2023-02-06T21:47:12.150Z,67.45
2023-02-06T21:49:39.844Z,67.51
2023-02-06T21:52:07.756Z,67.60
2023-02-06T21:54:35.555Z,67.57
2023-02-06T21:57:03.511Z,67.62
2023-02-06T21:59:33.455Z,67.50
2023-02-06T22:02:01.480Z,67.57
2023-02-06T22:04:29.295Z,67.52
2023-02-06T22:06:59.632Z,67.51
2023-02-06T22:09:27.526Z,67.54
2023-02-06T22:11:55.188Z,67.58
2023-02-06T22:14:23.015Z,67.75
2023-02-06T22:16:50.892Z,67.84
2023-02-06T22:19:18.845Z,67.84
2023-02-06T22:21:47.407Z,67.88
2023-02-06T22:24:15.091Z,67.94
2023-02-06T22:26:43.625Z,67.99
2023-02-06T22:29:17.041Z,68.12
2023-02-06T22:31:48.152Z,68.03
2023-02-06T22:34:20.464Z,68.11
2023-02-06T22:36:50.507Z,68.19
2023-02-06T22:39:19.005Z,68.13
2023-02-06T22:41:47.797Z,68.09
2023-02-06T22:44:19.502Z,68.15
2023-02-06T22:46:52.664Z,68.27
2023-02-06T22:49:21.772Z,68.26
2023-02-06T22:51:49.947Z,68.32
2023-02-06T22:54:18.145Z,68.37
2023-02-06T22:56:47.630Z,68.39
2023-02-06T22:59:38.709Z,68.52
2023-02-06T23:02:09.012Z,68.52
2023-02-06T23:04:37.947Z,68.49
2023-02-06T23:07:06.044Z,68.54
2023-02-06T23:09:37.949Z,68.51
2023-02-06T23:12:06.387Z,68.58
2023-02-06T23:14:34.249Z,68.63
2023-02-06T23:17:03.478Z,68.63
2023-02-06T23:19:31.303Z,68.54
2023-02-06T23:21:59.163Z,68.69
2023-02-06T23:24:27.493Z,68.75
2023-02-06T23:26:55.310Z,68.77
2023-02-06T23:29:23.775Z,68.60
2023-02-06T23:31:52.545Z,68.56
2023-02-06T23:34:23.673Z,68.73
2023-02-06T23:36:51.958Z,68.86
2023-02-06T23:39:23.113Z,68.85
2023-02-06T23:41:51.172Z,68.84
2023-02-06T23:44:19.138Z,68.72
2023-02-06T23:46:47.241Z,68.70
2023-02-06T23:49:15.037Z,68.81
2023-02-06T23:51:42.875Z,68.82
2023-02-06T23:54:10.855Z,68.85
2023-02-06T23:56:38.604Z,68.89
2023-02-06T23:59:06.380Z,68.88
